CEB454 RPVI-RPLL
Flight info
| Callsign | CEB454 |
|---|---|
| Flight time | 0h 41m |
| Altitude | 30000 |
| Route | LAMBO1S LAMBO B472 IBAGO IBAGO3R |
| Aircraft | A20N/M-SDE2E3FGHIRWXY/LB1 |
Departure
| Time | 2026-04-21 08:30 |
|---|---|
| Airport | Iloilo International Airport (RPVI) |
Arrival
| Time | 2026-04-21 09:11 |
|---|---|
| Airport | Ninoy Aquino International Airport (RPLL) |
| Time | Latitude | Longitude | Altitude | Speed | Heading |
|---|---|---|---|---|---|
| 2026-04-21 08:03 | 10.83113 | 122.49654 | 141 ft | 0 kts | 110° |
| 2026-04-21 08:19 | 10.83119 | 122.49638 | 140 ft | 2 kts | 112° |
| 2026-04-21 08:19 | 10.83126 | 122.49622 | 140 ft | 2 kts | 111° |
| 2026-04-21 08:20 | 10.83132 | 122.49606 | 140 ft | 2 kts | 111° |
| 2026-04-21 08:20 | 10.83138 | 122.49590 | 140 ft | 2 kts | 111° |
| 2026-04-21 08:20 | 10.83144 | 122.49575 | 140 ft | 1 kts | 111° |
| 2026-04-21 08:20 | 10.83146 | 122.49568 | 140 ft | 1 kts | 73° |
| 2026-04-21 08:21 | 10.83139 | 122.49564 | 140 ft | 1 kts | 11° |
| 2026-04-21 08:21 | 10.83136 | 122.49563 | 140 ft | 0 kts | 15° |
| 2026-04-21 08:22 | 10.83136 | 122.49562 | 139 ft | 0 kts | 16° |
| 2026-04-21 08:24 | 10.83144 | 122.49565 | 140 ft | 2 kts | 18° |
| 2026-04-21 08:24 | 10.83169 | 122.49575 | 140 ft | 4 kts | 23° |
| 2026-04-21 08:24 | 10.83206 | 122.49590 | 141 ft | 6 kts | 22° |
| 2026-04-21 08:25 | 10.83266 | 122.49613 | 141 ft | 8 kts | 19° |
| 2026-04-21 08:25 | 10.83326 | 122.49635 | 142 ft | 8 kts | 19° |
| 2026-04-21 08:25 | 10.83396 | 122.49660 | 142 ft | 9 kts | 19° |
| 2026-04-21 08:25 | 10.83474 | 122.49674 | 142 ft | 10 kts | 338° |
| 2026-04-21 08:26 | 10.83513 | 122.49601 | 142 ft | 11 kts | 291° |
| 2026-04-21 08:26 | 10.83533 | 122.49551 | 142 ft | 5 kts | 292° |
| 2026-04-21 08:26 | 10.83550 | 122.49511 | 142 ft | 5 kts | 292° |
| 2026-04-21 08:26 | 10.83571 | 122.49467 | 142 ft | 6 kts | 319° |
| 2026-04-21 08:27 | 10.83626 | 122.49457 | 143 ft | 7 kts | 10° |
| 2026-04-21 08:27 | 10.83687 | 122.49477 | 143 ft | 10 kts | 21° |
| 2026-04-21 08:27 | 10.83781 | 122.49512 | 144 ft | 13 kts | 19° |
| 2026-04-21 08:27 | 10.83878 | 122.49548 | 145 ft | 12 kts | 21° |
| 2026-04-21 08:28 | 10.83990 | 122.49589 | 146 ft | 18 kts | 20° |
| 2026-04-21 08:28 | 10.84146 | 122.49647 | 148 ft | 21 kts | 19° |
| 2026-04-21 08:28 | 10.84276 | 122.49707 | 151 ft | 9 kts | 47° |
| 2026-04-21 08:28 | 10.84335 | 122.49745 | 152 ft | 9 kts | 356° |
| 2026-04-21 08:29 | 10.84319 | 122.49707 | 151 ft | 8 kts | 197° |
| 2026-04-21 08:29 | 10.84127 | 122.49641 | 148 ft | 64 kts | 199° |
| 2026-04-21 08:29 | 10.83475 | 122.49399 | 142 ft | 132 kts | 200° |
| 2026-04-21 08:29 | 10.82362 | 122.48991 | 263 ft | 175 kts | 201° |
| 2026-04-21 08:30 | 10.81208 | 122.48587 | 902 ft | 173 kts | 200° |
| 2026-04-21 08:30 | 10.80086 | 122.48161 | 1541 ft | 174 kts | 199° |
| 2026-04-21 08:30 | 10.78963 | 122.47507 | 1915 ft | 196 kts | 225° |
| 2026-04-21 08:30 | 10.78402 | 122.46067 | 2256 ft | 220 kts | 269° |
| 2026-04-21 08:31 | 10.78958 | 122.44433 | 2589 ft | 242 kts | 312° |
| 2026-04-21 08:31 | 10.80453 | 122.43506 | 3346 ft | 238 kts | 352° |
| 2026-04-21 08:31 | 10.82158 | 122.43265 | 4084 ft | 242 kts | 357° |
| 2026-04-21 08:31 | 10.83886 | 122.43002 | 4967 ft | 242 kts | 353° |
| 2026-04-21 08:32 | 10.85797 | 122.42616 | 5846 ft | 245 kts | 351° |
| 2026-04-21 08:32 | 10.87554 | 122.42220 | 6653 ft | 248 kts | 350° |
| 2026-04-21 08:32 | 10.89330 | 122.41801 | 7438 ft | 252 kts | 349° |
| 2026-04-21 08:32 | 10.91103 | 122.41370 | 8178 ft | 256 kts | 348° |
| 2026-04-21 08:33 | 10.93005 | 122.40900 | 8932 ft | 260 kts | 348° |
| 2026-04-21 08:33 | 10.94967 | 122.40414 | 9692 ft | 264 kts | 347° |
| 2026-04-21 08:33 | 10.96917 | 122.39928 | 10431 ft | 267 kts | 346° |
| 2026-04-21 08:33 | 10.98840 | 122.39446 | 11139 ft | 270 kts | 346° |
| 2026-04-21 08:34 | 11.00901 | 122.38929 | 11850 ft | 273 kts | 346° |
| 2026-04-21 08:34 | 11.02841 | 122.38443 | 12496 ft | 276 kts | 345° |
| 2026-04-21 08:34 | 11.04785 | 122.37956 | 13096 ft | 280 kts | 345° |
| 2026-04-21 08:34 | 11.06748 | 122.37461 | 13715 ft | 283 kts | 345° |
| 2026-04-21 08:35 | 11.08711 | 122.36968 | 14318 ft | 286 kts | 345° |
| 2026-04-21 08:35 | 11.10717 | 122.36466 | 14908 ft | 289 kts | 345° |
| 2026-04-21 08:35 | 11.12780 | 122.35950 | 15501 ft | 291 kts | 345° |
| 2026-04-21 08:35 | 11.14849 | 122.35426 | 16082 ft | 294 kts | 343° |
| 2026-04-21 08:36 | 11.16858 | 122.34789 | 16629 ft | 296 kts | 339° |
| 2026-04-21 08:36 | 11.18975 | 122.33927 | 16961 ft | 309 kts | 336° |
| 2026-04-21 08:36 | 11.21089 | 122.33012 | 17217 ft | 324 kts | 336° |
| 2026-04-21 08:36 | 11.23375 | 122.32015 | 17481 ft | 338 kts | 336° |
| 2026-04-21 08:37 | 11.25768 | 122.30974 | 17738 ft | 352 kts | 336° |
| 2026-04-21 08:37 | 11.28271 | 122.29887 | 17989 ft | 366 kts | 336° |
| 2026-04-21 08:37 | 11.30885 | 122.28756 | 18230 ft | 379 kts | 336° |
| 2026-04-21 08:37 | 11.33647 | 122.27558 | 18460 ft | 392 kts | 336° |
| 2026-04-21 08:38 | 11.36490 | 122.26327 | 18653 ft | 404 kts | 336° |
| 2026-04-21 08:38 | 11.39517 | 122.25016 | 19030 ft | 411 kts | 336° |
| 2026-04-21 08:38 | 11.42562 | 122.23697 | 19502 ft | 415 kts | 336° |
| 2026-04-21 08:38 | 11.45610 | 122.22375 | 19986 ft | 417 kts | 336° |
| 2026-04-21 08:39 | 11.48673 | 122.21048 | 20628 ft | 414 kts | 335° |
| 2026-04-21 08:39 | 11.51675 | 122.19748 | 21530 ft | 404 kts | 335° |
| 2026-04-21 08:39 | 11.54588 | 122.18484 | 22193 ft | 401 kts | 335° |
| 2026-04-21 08:39 | 11.57437 | 122.17245 | 22678 ft | 405 kts | 335° |
| 2026-04-21 08:40 | 11.60360 | 122.15974 | 23156 ft | 408 kts | 335° |
| 2026-04-21 08:40 | 11.63328 | 122.14686 | 23664 ft | 411 kts | 335° |
| 2026-04-21 08:40 | 11.66339 | 122.13378 | 24180 ft | 413 kts | 335° |
| 2026-04-21 08:40 | 11.69338 | 122.12075 | 24666 ft | 416 kts | 335° |
| 2026-04-21 08:41 | 11.72293 | 122.10790 | 25140 ft | 418 kts | 335° |
| 2026-04-21 08:41 | 11.75267 | 122.09498 | 25607 ft | 421 kts | 335° |
| 2026-04-21 08:41 | 11.78466 | 122.08106 | 26093 ft | 424 kts | 335° |
| 2026-04-21 08:41 | 11.81626 | 122.06730 | 26558 ft | 427 kts | 335° |
| 2026-04-21 08:42 | 11.84856 | 122.05325 | 26999 ft | 430 kts | 335° |
| 2026-04-21 08:42 | 11.88098 | 122.03915 | 27456 ft | 433 kts | 335° |
| 2026-04-21 08:42 | 11.91318 | 122.02515 | 27883 ft | 435 kts | 335° |
| 2026-04-21 08:42 | 11.94565 | 122.01100 | 28294 ft | 438 kts | 335° |
| 2026-04-21 08:43 | 11.97721 | 121.99725 | 28661 ft | 441 kts | 335° |
| 2026-04-21 08:43 | 12.00720 | 121.98418 | 29072 ft | 442 kts | 335° |
| 2026-04-21 08:43 | 12.03701 | 121.97119 | 29485 ft | 442 kts | 335° |
| 2026-04-21 08:43 | 12.06837 | 121.95753 | 29819 ft | 444 kts | 335° |
| 2026-04-21 08:44 | 12.10109 | 121.94326 | 29834 ft | 445 kts | 335° |
| 2026-04-21 08:44 | 12.16586 | 121.91499 | 29836 ft | 444 kts | 335° |
| 2026-04-21 08:45 | 12.22863 | 121.88757 | 29839 ft | 445 kts | 335° |
| 2026-04-21 08:45 | 12.29147 | 121.86008 | 29842 ft | 445 kts | 335° |
| 2026-04-21 08:46 | 12.35665 | 121.83159 | 29829 ft | 445 kts | 335° |
| 2026-04-21 08:46 | 12.42323 | 121.80254 | 29842 ft | 445 kts | 335° |
| 2026-04-21 08:47 | 12.49050 | 121.77317 | 29845 ft | 445 kts | 335° |
| 2026-04-21 08:47 | 12.55468 | 121.74507 | 29847 ft | 444 kts | 335° |
| 2026-04-21 08:48 | 12.61849 | 121.71710 | 29842 ft | 444 kts | 335° |
| 2026-04-21 08:48 | 12.67926 | 121.69044 | 29846 ft | 444 kts | 335° |
| 2026-04-21 08:49 | 12.74473 | 121.66173 | 29844 ft | 444 kts | 335° |
| 2026-04-21 08:49 | 12.80642 | 121.63465 | 29843 ft | 444 kts | 335° |
| 2026-04-21 08:50 | 12.86583 | 121.60855 | 29847 ft | 444 kts | 335° |
| 2026-04-21 08:50 | 12.92694 | 121.58170 | 29844 ft | 443 kts | 335° |
| 2026-04-21 08:50 | 12.95856 | 121.56778 | 29348 ft | 446 kts | 335° |
| 2026-04-21 08:51 | 12.98984 | 121.55400 | 28563 ft | 447 kts | 335° |
| 2026-04-21 08:51 | 13.02107 | 121.54025 | 27783 ft | 447 kts | 335° |
| 2026-04-21 08:51 | 13.05193 | 121.52668 | 27250 ft | 442 kts | 335° |
| 2026-04-21 08:51 | 13.08273 | 121.51313 | 26731 ft | 436 kts | 335° |
| 2026-04-21 08:52 | 13.11246 | 121.50005 | 26226 ft | 430 kts | 335° |
| 2026-04-21 08:52 | 13.14408 | 121.48611 | 25679 ft | 425 kts | 335° |
| 2026-04-21 08:52 | 13.17353 | 121.47315 | 25170 ft | 420 kts | 335° |
| 2026-04-21 08:52 | 13.20253 | 121.46036 | 24664 ft | 416 kts | 335° |
| 2026-04-21 08:53 | 13.23169 | 121.44751 | 24146 ft | 412 kts | 335° |
| 2026-04-21 08:53 | 13.26032 | 121.43488 | 23633 ft | 409 kts | 335° |
| 2026-04-21 08:53 | 13.28924 | 121.42209 | 23116 ft | 405 kts | 335° |
| 2026-04-21 08:53 | 13.31727 | 121.40973 | 22605 ft | 402 kts | 335° |
| 2026-04-21 08:54 | 13.34505 | 121.39745 | 22107 ft | 398 kts | 335° |
| 2026-04-21 08:54 | 13.37271 | 121.38522 | 21621 ft | 395 kts | 335° |
| 2026-04-21 08:54 | 13.40088 | 121.37275 | 21099 ft | 393 kts | 336° |
| 2026-04-21 08:54 | 13.42873 | 121.36044 | 20581 ft | 390 kts | 336° |
| 2026-04-21 08:55 | 13.45751 | 121.34772 | 20037 ft | 388 kts | 335° |
| 2026-04-21 08:55 | 13.48579 | 121.33524 | 19674 ft | 379 kts | 335° |
| 2026-04-21 08:55 | 13.51319 | 121.32314 | 19540 ft | 365 kts | 335° |
| 2026-04-21 08:55 | 13.53952 | 121.31057 | 19358 ft | 351 kts | 334° |
| 2026-04-21 08:56 | 13.56558 | 121.29932 | 19001 ft | 344 kts | 337° |
| 2026-04-21 08:56 | 13.59145 | 121.28879 | 18542 ft | 342 kts | 337° |
| 2026-04-21 08:56 | 13.61683 | 121.27853 | 18098 ft | 339 kts | 338° |
| 2026-04-21 08:56 | 13.64165 | 121.26844 | 17648 ft | 336 kts | 338° |
| 2026-04-21 08:57 | 13.66673 | 121.25819 | 17185 ft | 333 kts | 338° |
| 2026-04-21 08:57 | 13.69057 | 121.24689 | 16782 ft | 330 kts | 330° |
| 2026-04-21 08:57 | 13.71283 | 121.23303 | 16344 ft | 328 kts | 328° |
| 2026-04-21 08:57 | 13.73503 | 121.21875 | 15836 ft | 328 kts | 328° |
| 2026-04-21 08:58 | 13.75743 | 121.20461 | 15277 ft | 330 kts | 329° |
| 2026-04-21 08:58 | 13.77957 | 121.19087 | 14875 ft | 323 kts | 330° |
| 2026-04-21 08:58 | 13.80193 | 121.17712 | 14461 ft | 318 kts | 330° |
| 2026-04-21 08:58 | 13.82351 | 121.16392 | 14048 ft | 316 kts | 330° |
| 2026-04-21 08:59 | 13.84514 | 121.15070 | 13634 ft | 313 kts | 331° |
| 2026-04-21 08:59 | 13.86674 | 121.13752 | 13221 ft | 310 kts | 331° |
| 2026-04-21 08:59 | 13.88813 | 121.12447 | 12795 ft | 308 kts | 332° |
| 2026-04-21 08:59 | 13.90935 | 121.11150 | 12346 ft | 306 kts | 331° |
| 2026-04-21 09:00 | 13.93066 | 121.09817 | 11890 ft | 304 kts | 330° |
| 2026-04-21 09:00 | 13.95150 | 121.08504 | 11462 ft | 303 kts | 331° |
| 2026-04-21 09:00 | 13.97214 | 121.07205 | 11023 ft | 301 kts | 330° |
| 2026-04-21 09:00 | 13.99258 | 121.05920 | 10592 ft | 299 kts | 331° |
| 2026-04-21 09:01 | 14.01265 | 121.04660 | 10171 ft | 298 kts | 331° |
| 2026-04-21 09:01 | 14.03203 | 121.03443 | 9754 ft | 296 kts | 331° |
| 2026-04-21 09:01 | 14.05268 | 121.02148 | 9317 ft | 294 kts | 331° |
| 2026-04-21 09:01 | 14.07267 | 121.00893 | 8913 ft | 292 kts | 331° |
| 2026-04-21 09:02 | 14.09308 | 120.99712 | 8496 ft | 289 kts | 336° |
| 2026-04-21 09:02 | 14.11389 | 120.98689 | 8263 ft | 278 kts | 337° |
| 2026-04-21 09:02 | 14.13421 | 120.97720 | 8051 ft | 268 kts | 337° |
| 2026-04-21 09:03 | 14.17225 | 120.95923 | 7639 ft | 249 kts | 338° |
| 2026-04-21 09:03 | 14.19046 | 120.95064 | 7436 ft | 242 kts | 338° |
| 2026-04-21 09:03 | 14.20821 | 120.94228 | 7148 ft | 239 kts | 338° |
| 2026-04-21 09:03 | 14.22535 | 120.93416 | 6772 ft | 238 kts | 338° |
| 2026-04-21 09:04 | 14.24203 | 120.92622 | 6422 ft | 237 kts | 337° |
| 2026-04-21 09:04 | 14.25736 | 120.91900 | 6131 ft | 236 kts | 337° |
| 2026-04-21 09:04 | 14.27250 | 120.91203 | 5873 ft | 235 kts | 337° |
| 2026-04-21 09:04 | 14.28796 | 120.90498 | 5563 ft | 234 kts | 337° |
| 2026-04-21 09:05 | 14.30374 | 120.89773 | 5218 ft | 234 kts | 338° |
| 2026-04-21 09:05 | 14.32034 | 120.88992 | 4873 ft | 235 kts | 337° |
| 2026-04-21 09:05 | 14.33644 | 120.88232 | 4567 ft | 235 kts | 338° |
| 2026-04-21 09:05 | 14.35282 | 120.87452 | 4222 ft | 235 kts | 338° |
| 2026-04-21 09:06 | 14.36895 | 120.86930 | 3932 ft | 231 kts | 353° |
| 2026-04-21 09:06 | 14.38604 | 120.86690 | 3770 ft | 221 kts | 357° |
| 2026-04-21 09:06 | 14.40289 | 120.86504 | 3612 ft | 203 kts | 359° |
| 2026-04-21 09:06 | 14.41816 | 120.86742 | 3292 ft | 186 kts | 30° |
| 2026-04-21 09:07 | 14.42817 | 120.87626 | 2756 ft | 177 kts | 56° |
| 2026-04-21 09:07 | 14.43519 | 120.88710 | 2416 ft | 165 kts | 62° |
| 2026-04-21 09:07 | 14.44084 | 120.89711 | 2179 ft | 152 kts | 64° |
| 2026-04-21 09:07 | 14.44593 | 120.90640 | 1988 ft | 144 kts | 64° |
| 2026-04-21 09:08 | 14.45096 | 120.91559 | 1829 ft | 143 kts | 64° |
| 2026-04-21 09:08 | 14.45614 | 120.92498 | 1656 ft | 141 kts | 64° |
| 2026-04-21 09:08 | 14.46104 | 120.93378 | 1471 ft | 140 kts | 65° |
| 2026-04-21 09:08 | 14.46585 | 120.94247 | 1299 ft | 138 kts | 64° |
| 2026-04-21 09:09 | 14.47060 | 120.95103 | 1127 ft | 138 kts | 63° |
| 2026-04-21 09:09 | 14.47533 | 120.95973 | 956 ft | 138 kts | 64° |
| 2026-04-21 09:09 | 14.48008 | 120.96832 | 786 ft | 138 kts | 62° |
| 2026-04-21 09:09 | 14.48485 | 120.97693 | 597 ft | 138 kts | 64° |
| 2026-04-21 09:10 | 14.48967 | 120.98542 | 443 ft | 137 kts | 63° |
| 2026-04-21 09:10 | 14.49427 | 120.99365 | 254 ft | 139 kts | 64° |
| 2026-04-21 09:10 | 14.49901 | 121.00222 | 106 ft | 134 kts | 64° |
| 2026-04-21 09:10 | 14.50328 | 121.00992 | 83 ft | 97 kts | 61° |
| 2026-04-21 09:11 | 14.50584 | 121.01449 | 83 ft | 54 kts | 61° |
| 2026-04-21 09:11 | 14.50731 | 121.01681 | 83 ft | 27 kts | 46° |
| 2026-04-21 09:11 | 14.50844 | 121.01780 | 83 ft | 11 kts | 36° |
| 2026-04-21 09:11 | 14.50904 | 121.01771 | 83 ft | 9 kts | 319° |
| 2026-04-21 09:12 | 14.50958 | 121.01720 | 83 ft | 10 kts | 317° |
| 2026-04-21 09:12 | 14.51015 | 121.01660 | 83 ft | 11 kts | 314° |
| 2026-04-21 09:12 | 14.51077 | 121.01592 | 83 ft | 12 kts | 315° |
| 2026-04-21 09:12 | 14.51145 | 121.01525 | 83 ft | 13 kts | 315° |
| 2026-04-21 09:13 | 14.51215 | 121.01452 | 83 ft | 14 kts | 315° |
| 2026-04-21 09:13 | 14.51277 | 121.01429 | 83 ft | 9 kts | 25° |
| 2026-04-21 09:13 | 14.51323 | 121.01482 | 83 ft | 10 kts | 51° |
| 2026-04-21 09:13 | 14.51375 | 121.01540 | 83 ft | 11 kts | 44° |
| 2026-04-21 09:14 | 14.51437 | 121.01595 | 83 ft | 10 kts | 33° |
| 2026-04-21 09:14 | 14.51495 | 121.01643 | 83 ft | 9 kts | 43° |
| 2026-04-21 09:14 | 14.51543 | 121.01692 | 83 ft | 9 kts | 46° |
| 2026-04-21 09:14 | 14.51589 | 121.01743 | 83 ft | 9 kts | 47° |
| 2026-04-21 09:15 | 14.51637 | 121.01783 | 83 ft | 8 kts | 21° |
| 2026-04-21 09:15 | 14.51690 | 121.01770 | 83 ft | 8 kts | 299° |
| 2026-04-21 09:15 | 14.51685 | 121.01746 | 83 ft | 2 kts | 224° |
| 2026-04-21 09:15 | 14.51671 | 121.01733 | 83 ft | 2 kts | 223° |
| 2026-04-21 09:16 | 14.51657 | 121.01720 | 83 ft | 2 kts | 223° |
| 2026-04-21 09:16 | 14.51652 | 121.01714 | 83 ft | 0 kts | 227° |